createdAt,value
2018-09-10T00:01:25.041Z,98453.00
2018-09-10T00:05:27.174Z,98455.00
2018-09-10T00:09:29.323Z,98467.00
2018-09-10T00:13:31.503Z,98453.00
2018-09-10T00:17:33.652Z,98457.00
2018-09-10T00:21:35.807Z,98454.00
2018-09-10T00:25:37.986Z,98456.00
2018-09-10T00:29:40.230Z,98449.00
2018-09-10T00:33:42.458Z,98452.00
2018-09-10T00:37:44.611Z,98456.00
2018-09-10T00:41:46.843Z,98451.00
2018-09-10T00:45:49.019Z,98456.00
2018-09-10T00:49:51.203Z,98454.00
2018-09-10T00:53:53.442Z,98453.00
2018-09-10T00:57:55.618Z,98454.00
2018-09-10T01:01:57.802Z,98453.00
2018-09-10T01:06:00.723Z,98454.00
2018-09-10T01:10:03.001Z,98453.00
2018-09-10T01:14:05.192Z,98452.00
2018-09-10T01:18:07.358Z,98450.00
2018-09-10T01:22:09.520Z,98452.00
2018-09-10T01:26:11.655Z,98442.00
2018-09-10T01:30:13.851Z,98441.00
2018-09-10T01:34:22.103Z,98439.00
2018-09-10T01:38:24.377Z,98436.00
2018-09-10T01:42:26.841Z,98432.00
2018-09-10T01:46:29.077Z,98445.00
2018-09-10T01:50:31.289Z,98445.00
2018-09-10T01:54:33.438Z,98434.00
2018-09-10T01:58:35.592Z,98433.00
2018-09-10T02:02:37.808Z,98431.00
2018-09-10T02:06:39.970Z,98432.00
2018-09-10T02:10:42.163Z,98433.00
2018-09-10T02:14:44.481Z,98435.00
2018-09-10T02:18:46.952Z,98432.00
2018-09-10T02:22:49.108Z,98448.00
2018-09-10T02:26:51.332Z,98450.00
2018-09-10T02:30:53.510Z,98443.00
2018-09-10T02:34:55.696Z,98450.00
2018-09-10T02:38:57.920Z,98452.00
2018-09-10T02:43:00.217Z,98443.00
2018-09-10T02:47:02.395Z,98437.00
2018-09-10T02:51:05.592Z,98445.00
2018-09-10T02:55:08.480Z,98440.00
2018-09-10T02:59:10.754Z,98444.00
2018-09-10T03:03:12.919Z,98450.00
2018-09-10T03:07:15.662Z,98452.00
2018-09-10T03:11:17.870Z,98442.00
2018-09-10T03:15:20.223Z,98441.00
2018-09-10T03:19:22.382Z,98435.00
2018-09-10T03:23:24.523Z,98427.00
2018-09-10T03:27:26.686Z,98432.00
2018-09-10T03:31:28.937Z,98422.00
2018-09-10T03:35:31.491Z,98425.00
2018-09-10T03:39:33.771Z,98413.00
2018-09-10T03:43:36.062Z,98416.00
2018-09-10T03:47:38.366Z,98409.00
2018-09-10T03:51:40.610Z,98406.00
2018-09-10T03:55:42.772Z,98403.00
2018-09-10T03:59:45.023Z,98397.00
2018-09-10T04:03:47.280Z,98399.00
2018-09-10T04:07:49.538Z,98410.00
2018-09-10T04:11:51.741Z,98401.00
2018-09-10T04:15:53.982Z,98388.00
2018-09-10T04:20:00.905Z,98393.00
2018-09-10T04:24:03.499Z,98395.00
2018-09-10T04:28:05.784Z,98404.00
2018-09-10T04:32:08.041Z,98402.00
2018-09-10T04:36:11.373Z,98406.00
2018-09-10T04:40:13.421Z,98411.00
2018-09-10T04:44:15.546Z,98406.00
2018-09-10T04:48:17.720Z,98416.00
2018-09-10T04:52:19.934Z,98418.00
2018-09-10T04:56:22.097Z,98429.00
2018-09-10T05:00:25.337Z,98427.00
2018-09-10T05:04:27.636Z,98424.00
2018-09-10T05:08:29.946Z,98431.00
2018-09-10T05:12:32.135Z,98438.00
2018-09-10T05:16:35.219Z,98438.00
2018-09-10T05:20:37.375Z,98451.00
2018-09-10T05:24:40.343Z,98446.00
2018-09-10T05:28:43.554Z,98446.00
2018-09-10T05:32:45.882Z,98448.00
2018-09-10T05:36:48.766Z,98458.00
2018-09-10T05:40:51.275Z,98461.00
2018-09-10T05:44:53.532Z,98453.00
2018-09-10T05:48:57.159Z,98459.00
2018-09-10T05:53:01.115Z,98452.00
2018-09-10T05:57:03.304Z,98461.00
2018-09-10T06:01:05.524Z,98453.00
2018-09-10T06:05:07.742Z,98459.00
2018-09-10T06:09:09.887Z,98454.00
2018-09-10T06:13:13.304Z,98457.00
2018-09-10T06:17:15.523Z,98464.00
2018-09-10T06:21:17.666Z,98465.00
2018-09-10T06:25:21.851Z,98464.00
2018-09-10T06:29:24.739Z,98468.00
2018-09-10T06:33:26.917Z,98460.00
2018-09-10T06:37:29.304Z,98461.00
2018-09-10T06:41:31.459Z,98468.00
2018-09-10T06:45:34.725Z,98469.00
2018-09-10T06:49:36.860Z,98468.00
2018-09-10T06:53:39.015Z,98466.00
2018-09-10T06:57:41.176Z,98476.00
2018-09-10T07:01:43.328Z,98475.00
2018-09-10T07:05:46.837Z,98483.00
2018-09-10T07:09:49.737Z,98484.00
2018-09-10T07:13:51.934Z,98477.00
2018-09-10T07:17:54.096Z,98477.00
2018-09-10T07:21:56.265Z,98481.00
2018-09-10T07:25:58.418Z,98477.00
2018-09-10T07:30:00.691Z,98487.00
2018-09-10T07:34:03.403Z,98492.00
2018-09-10T07:38:05.857Z,98505.00
2018-09-10T07:42:08.012Z,98508.00
2018-09-10T07:46:10.205Z,98522.00
2018-09-10T07:50:12.464Z,98517.00
2018-09-10T07:54:14.643Z,98518.00
2018-09-10T07:58:17.745Z,98537.00
2018-09-10T08:02:20.099Z,98516.00
2018-09-10T08:06:22.259Z,98470.00
2018-09-10T08:10:24.439Z,98514.00
2018-09-10T08:14:27.261Z,98523.00
2018-09-10T08:18:29.523Z,98513.00
2018-09-10T08:22:31.701Z,98508.00
2018-09-10T08:26:33.872Z,98509.00
2018-09-10T08:30:36.512Z,98515.00
2018-09-10T08:34:38.696Z,98519.00
2018-09-10T08:38:41.207Z,98516.00
2018-09-10T08:42:43.620Z,98514.00
2018-09-10T08:46:45.834Z,98511.00
2018-09-10T08:50:48.044Z,98511.00
2018-09-10T08:54:50.437Z,98500.00
2018-09-10T08:58:52.396Z,98502.00
2018-09-10T09:02:55.377Z,98507.00
2018-09-10T09:06:58.412Z,98506.00
2018-09-10T09:11:00.670Z,98516.00
2018-09-10T09:15:03.804Z,98517.00
2018-09-10T09:19:05.987Z,98524.00
2018-09-10T09:23:08.501Z,98522.00
2018-09-10T09:27:10.699Z,98534.00
2018-09-10T09:31:12.853Z,98539.00
2018-09-10T09:35:15.410Z,98544.00
2018-09-10T09:39:23.455Z,98530.00
2018-09-10T09:44:28.987Z,98544.00
2018-09-10T09:48:31.126Z,98538.00
2018-09-10T09:52:33.394Z,98540.00
2018-09-10T09:56:35.675Z,98544.00
2018-09-10T10:00:44.488Z,98537.00
2018-09-10T10:04:47.771Z,98529.00
2018-09-10T10:08:50.138Z,98517.00
2018-09-10T10:12:52.389Z,98518.00
2018-09-10T10:16:54.633Z,98519.00
2018-09-10T10:20:56.864Z,98521.00
2018-09-10T10:24:59.103Z,98510.00
2018-09-10T10:29:01.300Z,98504.00
2018-09-10T10:33:03.557Z,98499.00
2018-09-10T10:37:07.891Z,98495.00
2018-09-10T10:41:11.037Z,98496.00
2018-09-10T10:45:15.649Z,98485.00
2018-09-10T10:49:19.706Z,98481.00
2018-09-10T10:53:22.785Z,98476.00
2018-09-10T10:57:25.006Z,98476.00
2018-09-10T11:01:27.304Z,98477.00
2018-09-10T11:05:29.493Z,98480.00
2018-09-10T11:09:31.791Z,98479.00
2018-09-10T11:13:34.043Z,98477.00
2018-09-10T11:17:36.305Z,98469.00
2018-09-10T11:21:38.508Z,98461.00
2018-09-10T11:25:41.386Z,98463.00
2018-09-10T11:29:44.486Z,98462.00
2018-09-10T11:33:46.904Z,98465.00
2018-09-10T11:37:49.686Z,98456.00
2018-09-10T11:41:51.945Z,98457.00
2018-09-10T11:45:54.576Z,98455.00
2018-09-10T11:49:57.929Z,98449.00
2018-09-10T11:54:00.227Z,98447.00
2018-09-10T11:58:02.490Z,98448.00
2018-09-10T12:02:07.656Z,98448.00
2018-09-10T12:06:09.850Z,98451.00
2018-09-10T12:10:12.033Z,98454.00
2018-09-10T12:14:14.251Z,98465.00
2018-09-10T12:18:16.408Z,98462.00
2018-09-10T12:22:18.606Z,98448.00
2018-09-10T12:26:20.816Z,98453.00
2018-09-10T12:30:23.187Z,98450.00
2018-09-10T12:34:25.403Z,98448.00
2018-09-10T12:38:27.807Z,98458.00
2018-09-10T12:42:30.029Z,98444.00
2018-09-10T12:46:32.463Z,98451.00
2018-09-10T12:50:34.831Z,98451.00
2018-09-10T12:54:37.191Z,98453.00
2018-09-10T12:58:39.557Z,98440.00
2018-09-10T13:02:41.775Z,98433.00
2018-09-10T13:06:43.943Z,98441.00
2018-09-10T13:10:46.808Z,98434.00
2018-09-10T13:14:48.890Z,98435.00
2018-09-10T13:18:51.173Z,98428.00
2018-09-10T13:22:53.767Z,98433.00
2018-09-10T13:26:56.289Z,98425.00
2018-09-10T13:30:59.412Z,98428.00
2018-09-10T13:35:01.656Z,98431.00
2018-09-10T13:39:05.301Z,98435.00
2018-09-10T13:43:08.024Z,98443.00
2018-09-10T13:47:10.182Z,98447.00
2018-09-10T13:51:12.372Z,98440.00
2018-09-10T13:55:14.556Z,98442.00
2018-09-10T13:59:17.309Z,98440.00
2018-09-10T14:03:19.511Z,98437.00
2018-09-10T14:07:22.427Z,98439.00
2018-09-10T14:11:24.781Z,98444.00
2018-09-10T14:15:26.948Z,98434.00
2018-09-10T14:19:29.165Z,98432.00
2018-09-10T14:23:31.383Z,98438.00
2018-09-10T14:27:33.612Z,98434.00
2018-09-10T14:31:35.864Z,98435.00
2018-09-10T14:35:38.100Z,98424.00
2018-09-10T14:39:40.431Z,98426.00
2018-09-10T14:43:42.628Z,98414.00
2018-09-10T14:47:44.835Z,98412.00
2018-09-10T14:51:47.100Z,98411.00
2018-09-10T14:55:50.417Z,98413.00
2018-09-10T14:59:52.661Z,98420.00
2018-09-10T15:03:55.049Z,98415.00
2018-09-10T15:07:57.390Z,98408.00
2018-09-10T15:11:59.685Z,98413.00
2018-09-10T15:16:01.952Z,98422.00
2018-09-10T15:20:04.328Z,98420.00
2018-09-10T15:24:06.542Z,98415.00
2018-09-10T15:28:10.532Z,98415.00
2018-09-10T15:32:12.713Z,98407.00
2018-09-10T15:36:14.887Z,98409.00
2018-09-10T15:40:17.096Z,98409.00
2018-09-10T15:44:19.277Z,98414.00
2018-09-10T15:48:21.482Z,98410.00
2018-09-10T15:52:23.706Z,98415.00
2018-09-10T15:56:25.985Z,98416.00
2018-09-10T16:00:28.196Z,98423.00
2018-09-10T16:04:30.359Z,98423.00
2018-09-10T16:08:33.145Z,98416.00
2018-09-10T16:12:35.343Z,98422.00
2018-09-10T16:16:38.480Z,98439.00
2018-09-10T16:20:40.745Z,98453.00
2018-09-10T16:30:54.103Z,98457.00
2018-09-10T16:34:56.309Z,98462.00
2018-09-10T16:38:58.490Z,98462.00
2018-09-10T16:43:00.712Z,98461.00
2018-09-10T16:47:02.904Z,98468.00
2018-09-10T16:51:05.303Z,98483.00
2018-09-10T16:55:07.747Z,98491.00
2018-09-10T16:59:10.826Z,98495.00
2018-09-10T17:03:13.157Z,98498.00
2018-09-10T17:07:15.358Z,98501.00
2018-09-10T17:11:17.673Z,98498.00
2018-09-10T17:15:19.897Z,98492.00
2018-09-10T17:19:22.104Z,98488.00
2018-09-10T17:23:24.339Z,98480.00
2018-09-10T17:27:26.543Z,98495.00
2018-09-10T17:31:28.761Z,98500.00
2018-09-10T17:35:31.059Z,98483.00
2018-09-10T17:39:33.323Z,98491.00
2018-09-10T17:43:35.576Z,98499.00
2018-09-10T17:47:37.859Z,98500.00
2018-09-10T17:51:40.101Z,98510.00
2018-09-10T17:55:42.345Z,98510.00
2018-09-10T17:59:44.640Z,98501.00
2018-09-10T18:03:46.928Z,98501.00
2018-09-10T18:07:49.171Z,98508.00
2018-09-10T18:11:51.370Z,98501.00
2018-09-10T18:15:54.044Z,98523.00
2018-09-10T18:19:56.391Z,98526.00
2018-09-10T18:23:59.281Z,98537.00
2018-09-10T18:28:01.603Z,98531.00
2018-09-10T18:32:03.857Z,98558.00
2018-09-10T18:36:06.120Z,98558.00
2018-09-10T18:40:08.877Z,98562.00
2018-09-10T18:44:11.077Z,98563.00
2018-09-10T18:48:13.336Z,98572.00
2018-09-10T18:52:15.638Z,98582.00
2018-09-10T18:56:17.938Z,98582.00
2018-09-10T19:00:20.327Z,98589.00
2018-09-10T19:04:22.679Z,98601.00
2018-09-10T19:08:24.980Z,98609.00
2018-09-10T19:12:27.200Z,98616.00
2018-09-10T19:16:29.409Z,98626.00
2018-09-10T19:20:31.989Z,98619.00
2018-09-10T19:24:34.309Z,98630.00
2018-09-10T19:28:36.568Z,98622.00
2018-09-10T19:32:38.823Z,98621.00
2018-09-10T19:36:41.128Z,98628.00
2018-09-10T19:40:43.343Z,98622.00
2018-09-10T19:44:45.590Z,98624.00
2018-09-10T19:48:47.914Z,98633.00
2018-09-10T19:52:50.630Z,98622.00
2018-09-10T19:56:53.226Z,98622.00
2018-09-10T20:00:55.444Z,98629.00
2018-09-10T20:04:57.731Z,98622.00
2018-09-10T20:08:59.931Z,98620.00
2018-09-10T20:13:02.112Z,98620.00
2018-09-10T20:17:04.783Z,98619.00
2018-09-10T20:21:06.968Z,98622.00
2018-09-10T20:25:09.163Z,98618.00
2018-09-10T20:29:11.381Z,98608.00
2018-09-10T20:33:13.623Z,98613.00
2018-09-10T20:37:15.824Z,98621.00
2018-09-10T20:41:18.182Z,98613.00
2018-09-10T20:45:20.360Z,98608.00
2018-09-10T20:49:22.527Z,98595.00
2018-09-10T20:53:25.035Z,98595.00
2018-09-10T20:57:27.328Z,98597.00
2018-09-10T21:01:29.513Z,98582.00
2018-09-10T21:05:31.753Z,98576.00
2018-09-10T21:09:33.947Z,98580.00
2018-09-10T21:13:36.094Z,98581.00
2018-09-10T21:17:38.357Z,98586.00
2018-09-10T21:21:40.635Z,98592.00
2018-09-10T21:25:43.746Z,98602.00
2018-09-10T21:29:46.079Z,98603.00
2018-09-10T21:33:48.355Z,98595.00
2018-09-10T21:37:50.543Z,98608.00
2018-09-10T21:41:52.755Z,98595.00
2018-09-10T21:45:54.909Z,98599.00
2018-09-10T21:49:57.084Z,98602.00
2018-09-10T21:53:59.325Z,98606.00
2018-09-10T21:58:01.466Z,98614.00
2018-09-10T22:02:03.656Z,98618.00
2018-09-10T22:06:05.883Z,98632.00
2018-09-10T22:10:08.110Z,98636.00
2018-09-10T22:14:10.322Z,98639.00
2018-09-10T22:18:13.234Z,98647.00
2018-09-10T22:22:15.419Z,98639.00
2018-09-10T22:26:17.608Z,98644.00
2018-09-10T22:30:19.747Z,98641.00
2018-09-10T22:34:21.990Z,98646.00
2018-09-10T22:38:24.121Z,98639.00
2018-09-10T22:42:26.777Z,98618.00
2018-09-10T22:46:28.963Z,98625.00
2018-09-10T22:50:31.159Z,98628.00
2018-09-10T22:54:33.393Z,98617.00
2018-09-10T22:58:35.550Z,98622.00
2018-09-10T23:02:37.950Z,98601.00
2018-09-10T23:06:40.119Z,98605.00
2018-09-10T23:10:42.257Z,98612.00
2018-09-10T23:14:44.447Z,98614.00
2018-09-10T23:18:46.594Z,98609.00
2018-09-10T23:22:48.795Z,98611.00
2018-09-10T23:26:50.976Z,98606.00
2018-09-10T23:30:53.154Z,98612.00
2018-09-10T23:34:55.304Z,98620.00
2018-09-10T23:38:57.514Z,98604.00
2018-09-10T23:42:59.851Z,98604.00
2018-09-10T23:47:02.056Z,98604.00
2018-09-10T23:51:04.187Z,98602.00
2018-09-10T23:55:06.414Z,98606.00
2018-09-10T23:59:08.568Z,98607.00
